createdAt,value
2022-12-29T00:02:13.986Z,54.75
2022-12-29T00:04:46.247Z,54.87
2022-12-29T00:07:18.461Z,54.91
2022-12-29T00:09:50.732Z,54.88
2022-12-29T00:12:23.019Z,55.10
2022-12-29T00:15:12.582Z,55.17
2022-12-29T00:17:44.830Z,55.28
2022-12-29T00:20:34.455Z,55.06
2022-12-29T00:23:24.214Z,55.20
2022-12-29T00:26:13.882Z,55.20
2022-12-29T00:29:03.525Z,55.18
2022-12-29T00:31:53.097Z,55.46
2022-12-29T00:34:42.993Z,55.22
2022-12-29T00:37:15.532Z,55.34
2022-12-29T00:40:05.240Z,55.44
2022-12-29T00:42:55.039Z,55.38
2022-12-29T00:45:27.187Z,55.44
2022-12-29T00:47:59.390Z,55.57
2022-12-29T00:50:31.862Z,55.57
2022-12-29T00:53:04.075Z,55.62
2022-12-29T00:55:40.299Z,55.66
2022-12-29T00:58:12.641Z,56.00
2022-12-29T01:00:44.947Z,55.64
2022-12-29T01:03:17.425Z,56.05
2022-12-29T01:05:50.481Z,55.84
2022-12-29T01:08:22.666Z,56.01
2022-12-29T01:11:04.606Z,55.94
2022-12-29T01:13:38.295Z,55.91
2022-12-29T01:16:11.429Z,55.96
2022-12-29T01:18:43.620Z,55.98
2022-12-29T01:21:15.836Z,56.08
2022-12-29T01:23:48.040Z,56.33
2022-12-29T01:26:20.995Z,56.03
2022-12-29T01:28:53.260Z,56.11
2022-12-29T01:31:25.556Z,56.25
2022-12-29T01:33:57.896Z,56.19
2022-12-29T01:36:31.125Z,56.11
2022-12-29T01:39:03.307Z,56.34
2022-12-29T01:41:35.533Z,56.21
2022-12-29T01:44:38.345Z,56.47
2022-12-29T01:47:12.153Z,56.40
2022-12-29T01:49:44.362Z,56.43
2022-12-29T01:52:16.771Z,56.60
2022-12-29T01:54:54.867Z,56.50
2022-12-29T01:57:32.275Z,56.62
2022-12-29T02:00:10.239Z,56.29
2022-12-29T02:02:44.758Z,56.75
2022-12-29T02:05:23.810Z,56.53
2022-12-29T02:07:57.424Z,56.61
2022-12-29T02:10:32.801Z,56.54
2022-12-29T02:13:06.326Z,56.65
2022-12-29T02:15:59.480Z,56.62
2022-12-29T02:18:40.381Z,56.73
2022-12-29T02:21:47.839Z,56.82
2022-12-29T02:24:48.926Z,56.87
2022-12-29T02:27:56.845Z,56.91
2022-12-29T02:30:42.915Z,56.91
2022-12-29T02:33:25.728Z,57.14
2022-12-29T02:36:08.604Z,57.14
2022-12-29T02:38:54.767Z,56.98
2022-12-29T02:41:33.539Z,57.04
2022-12-29T02:44:14.800Z,56.67
2022-12-29T02:46:51.634Z,56.91
2022-12-29T02:49:34.575Z,57.08
2022-12-29T02:52:12.354Z,57.08
2022-12-29T02:54:44.992Z,57.14
2022-12-29T02:57:32.896Z,56.98
2022-12-29T03:00:10.698Z,57.08
2022-12-29T03:03:13.799Z,57.08
2022-12-29T03:06:19.439Z,57.05
2022-12-29T03:08:57.615Z,57.36
2022-12-29T03:12:01.723Z,57.23
2022-12-29T03:14:57.739Z,57.20
2022-12-29T03:17:38.852Z,57.42
2022-12-29T03:20:16.138Z,57.23
2022-12-29T03:22:53.935Z,57.33
2022-12-29T03:25:31.130Z,57.59
2022-12-29T03:28:07.567Z,57.26
2022-12-29T03:30:42.321Z,57.44
2022-12-29T03:33:18.938Z,57.32
2022-12-29T03:35:54.843Z,57.42
2022-12-29T03:38:32.688Z,57.56
2022-12-29T03:41:10.650Z,57.27
2022-12-29T03:43:43.316Z,57.60
2022-12-29T03:46:15.634Z,57.60
2022-12-29T03:48:48.095Z,57.78
2022-12-29T03:51:20.330Z,57.56
2022-12-29T03:53:52.674Z,57.82
2022-12-29T03:56:25.008Z,57.72
2022-12-29T03:58:57.395Z,57.54
2022-12-29T04:01:29.806Z,57.63
2022-12-29T04:04:02.099Z,57.69
2022-12-29T04:06:34.112Z,57.74
2022-12-29T04:09:06.378Z,57.71
2022-12-29T04:11:39.769Z,57.53
2022-12-29T04:14:11.962Z,58.20
2022-12-29T04:16:44.523Z,57.86
2022-12-29T04:19:16.828Z,58.36
2022-12-29T04:21:50.850Z,58.14
2022-12-29T04:24:23.219Z,57.80
2022-12-29T04:26:55.406Z,57.92
2022-12-29T04:29:27.810Z,57.87
2022-12-29T04:32:00.004Z,57.87
2022-12-29T04:34:32.239Z,58.35
2022-12-29T04:37:04.396Z,58.45
2022-12-29T04:39:36.791Z,58.34
2022-12-29T04:42:09.078Z,58.30
2022-12-29T04:44:45.022Z,58.09
2022-12-29T04:47:17.540Z,58.09
2022-12-29T04:49:50.972Z,58.34
2022-12-29T04:52:23.243Z,57.99
2022-12-29T04:54:55.515Z,58.21
2022-12-29T04:57:27.929Z,57.90
2022-12-29T05:00:00.179Z,58.28
2022-12-29T05:02:32.723Z,58.30
2022-12-29T05:05:05.470Z,58.09
2022-12-29T05:07:37.897Z,58.12
2022-12-29T05:10:11.454Z,57.90
2022-12-29T05:12:43.757Z,58.13
2022-12-29T05:15:16.041Z,58.36
2022-12-29T05:17:48.292Z,58.20
2022-12-29T05:20:20.626Z,58.10
2022-12-29T05:22:52.903Z,58.20
2022-12-29T05:25:25.104Z,58.32
2022-12-29T05:27:57.385Z,58.27
2022-12-29T05:30:29.554Z,58.37
2022-12-29T05:33:01.786Z,58.56
2022-12-29T05:35:34.009Z,58.41
2022-12-29T05:38:06.415Z,58.28
2022-12-29T05:40:38.735Z,58.70
2022-12-29T05:43:10.941Z,58.50
2022-12-29T05:45:43.133Z,58.52
2022-12-29T05:48:15.379Z,58.32
2022-12-29T05:50:51.456Z,58.38
2022-12-29T05:53:23.642Z,58.49
2022-12-29T05:55:55.943Z,58.56
2022-12-29T05:58:28.141Z,58.33
2022-12-29T06:01:00.391Z,58.61
2022-12-29T06:03:32.724Z,58.54
2022-12-29T06:06:05.362Z,58.80
2022-12-29T06:08:37.606Z,58.61
2022-12-29T06:11:09.931Z,58.56
2022-12-29T06:13:42.223Z,58.86
2022-12-29T06:16:14.596Z,58.70
2022-12-29T06:18:47.893Z,58.48
2022-12-29T06:21:20.115Z,58.98
2022-12-29T06:23:52.447Z,58.63
2022-12-29T06:26:24.696Z,58.73
2022-12-29T06:28:56.909Z,58.85
2022-12-29T06:31:29.139Z,58.52
2022-12-29T06:34:07.911Z,58.75
2022-12-29T06:36:41.037Z,59.07
2022-12-29T06:39:14.191Z,59.01
2022-12-29T06:41:46.527Z,59.05
2022-12-29T06:44:18.739Z,59.00
2022-12-29T06:46:51.011Z,58.90
2022-12-29T06:49:23.312Z,59.09
2022-12-29T06:51:55.568Z,59.24
2022-12-29T06:54:27.862Z,59.11
2022-12-29T06:57:00.425Z,58.90
2022-12-29T06:59:32.774Z,59.10
2022-12-29T07:02:05.219Z,59.12
2022-12-29T07:04:37.664Z,59.03
2022-12-29T07:07:09.971Z,59.21
2022-12-29T07:09:42.557Z,59.08
2022-12-29T07:12:14.863Z,59.28
2022-12-29T07:14:47.211Z,59.18
2022-12-29T07:17:19.517Z,59.20
2022-12-29T07:19:51.700Z,59.21
2022-12-29T07:22:23.973Z,59.25
2022-12-29T07:24:56.257Z,59.33
2022-12-29T07:27:28.499Z,59.66
2022-12-29T07:30:00.728Z,59.32
2022-12-29T07:32:36.292Z,59.33
2022-12-29T07:35:09.828Z,59.26
2022-12-29T07:37:42.059Z,59.25
2022-12-29T07:40:15.085Z,59.22
2022-12-29T07:42:47.306Z,59.17
2022-12-29T07:45:19.736Z,58.87
2022-12-29T07:47:54.335Z,58.86
2022-12-29T07:50:26.713Z,58.52
2022-12-29T07:52:58.998Z,58.63
2022-12-29T07:55:31.465Z,58.49
2022-12-29T07:58:03.884Z,58.21
2022-12-29T08:00:36.133Z,57.92
2022-12-29T08:03:08.583Z,57.62
2022-12-29T08:05:40.866Z,57.27
2022-12-29T08:08:13.251Z,57.76
2022-12-29T08:10:45.689Z,57.63
2022-12-29T08:13:18.624Z,57.82
2022-12-29T08:15:50.908Z,57.92
2022-12-29T08:18:23.147Z,57.55
2022-12-29T08:20:56.259Z,57.28
2022-12-29T08:23:28.586Z,56.87
2022-12-29T08:26:03.302Z,56.46
2022-12-29T08:28:35.711Z,56.56
2022-12-29T08:31:08.141Z,56.68
2022-12-29T08:33:40.491Z,56.17
2022-12-29T08:36:13.578Z,56.07
2022-12-29T08:38:45.782Z,56.16
2022-12-29T08:41:18.264Z,55.92
2022-12-29T08:43:51.935Z,55.79
2022-12-29T08:46:24.316Z,55.95
2022-12-29T08:48:56.803Z,55.72
2022-12-29T08:51:28.986Z,55.61
2022-12-29T08:54:01.927Z,55.78
2022-12-29T08:56:34.547Z,55.76
2022-12-29T08:59:06.734Z,55.78
2022-12-29T09:01:41.818Z,55.63
2022-12-29T09:04:16.462Z,55.60
2022-12-29T09:06:49.515Z,55.33
2022-12-29T09:09:21.817Z,55.08
2022-12-29T09:11:54.455Z,55.01
2022-12-29T09:14:26.772Z,54.81
2022-12-29T09:17:16.663Z,54.77
2022-12-29T09:19:49.045Z,54.62
2022-12-29T09:22:21.578Z,54.44
2022-12-29T09:24:53.891Z,54.35
2022-12-29T09:27:26.147Z,54.09
2022-12-29T09:29:58.947Z,53.91
2022-12-29T09:32:33.841Z,53.29
2022-12-29T09:35:07.668Z,53.62
2022-12-29T09:37:39.900Z,53.79
2022-12-29T09:40:26.322Z,53.50
2022-12-29T09:43:24.046Z,52.89
2022-12-29T09:46:03.422Z,52.82
2022-12-29T09:48:42.065Z,53.17
2022-12-29T09:51:18.017Z,53.33
2022-12-29T09:53:52.444Z,53.29
2022-12-29T09:56:26.937Z,52.77
2022-12-29T09:59:04.711Z,52.79
2022-12-29T10:01:43.950Z,52.76
2022-12-29T10:04:16.445Z,52.70
2022-12-29T10:07:28.167Z,52.64
2022-12-29T10:09:54.649Z,52.37
2022-12-29T10:12:34.930Z,51.97
2022-12-29T10:15:20.030Z,51.28
2022-12-29T10:18:00.441Z,51.64
2022-12-29T10:20:40.569Z,51.73
2022-12-29T10:23:27.299Z,51.94
2022-12-29T10:26:00.890Z,51.65
2022-12-29T10:28:41.097Z,51.81
2022-12-29T10:31:21.101Z,51.91
2022-12-29T10:33:59.833Z,51.70
2022-12-29T10:36:37.022Z,51.63
2022-12-29T10:39:22.634Z,51.80
2022-12-29T10:41:59.603Z,51.56
2022-12-29T10:44:35.791Z,51.41
2022-12-29T10:47:14.677Z,51.55
2022-12-29T10:49:49.819Z,51.32
2022-12-29T10:52:24.559Z,51.43
2022-12-29T10:55:03.511Z,51.31
2022-12-29T10:57:38.946Z,51.13
2022-12-29T11:00:17.765Z,51.05
2022-12-29T11:03:10.231Z,50.99
2022-12-29T11:05:48.569Z,50.75
2022-12-29T11:08:24.786Z,50.84
2022-12-29T11:11:04.287Z,50.91
2022-12-29T11:13:39.390Z,50.68
2022-12-29T11:16:15.433Z,50.35
2022-12-29T11:18:50.280Z,50.40
2022-12-29T11:21:33.805Z,50.32
2022-12-29T11:24:08.102Z,50.23
2022-12-29T11:26:42.360Z,50.31
2022-12-29T11:29:32.217Z,50.16
2022-12-29T11:32:15.331Z,50.33
2022-12-29T11:34:47.728Z,50.17
2022-12-29T11:37:25.979Z,49.71
2022-12-29T11:40:02.328Z,49.93
2022-12-29T11:42:40.542Z,49.63
2022-12-29T11:45:20.621Z,49.97
2022-12-29T11:47:55.325Z,49.90
2022-12-29T11:50:31.547Z,50.06
2022-12-29T11:53:08.511Z,50.17
2022-12-29T11:55:40.831Z,50.26
2022-12-29T11:58:19.814Z,50.09
2022-12-29T12:00:53.487Z,50.33
2022-12-29T12:03:30.723Z,50.19
2022-12-29T12:06:05.201Z,50.10
2022-12-29T12:08:41.136Z,50.06
2022-12-29T12:11:14.448Z,50.15
2022-12-29T12:14:02.104Z,50.18
2022-12-29T12:16:39.569Z,50.13
2022-12-29T12:19:22.758Z,50.09
2022-12-29T12:21:58.427Z,50.11
2022-12-29T12:24:45.345Z,50.06
2022-12-29T12:27:26.617Z,50.16
2022-12-29T12:30:04.125Z,50.18
2022-12-29T12:32:46.830Z,50.04
2022-12-29T12:35:27.196Z,50.06
2022-12-29T12:38:17.788Z,50.21
2022-12-29T12:41:08.045Z,50.13
2022-12-29T12:43:49.688Z,50.08
2022-12-29T12:46:45.570Z,50.16
2022-12-29T12:49:38.146Z,50.04
2022-12-29T12:52:18.902Z,50.07
2022-12-29T12:55:10.270Z,49.94
2022-12-29T12:57:55.000Z,50.00
2022-12-29T13:00:30.140Z,49.90
2022-12-29T13:03:13.574Z,50.06
2022-12-29T13:06:10.226Z,50.01
2022-12-29T13:09:16.997Z,50.08
2022-12-29T13:12:04.121Z,50.28
2022-12-29T13:14:48.869Z,50.13
2022-12-29T13:17:28.921Z,50.26
2022-12-29T13:20:11.438Z,50.13
2022-12-29T13:22:52.607Z,50.25
2022-12-29T13:25:36.121Z,50.26
2022-12-29T13:28:19.279Z,50.34
2022-12-29T13:30:59.996Z,50.23
2022-12-29T13:33:39.595Z,50.34
2022-12-29T13:36:20.299Z,50.37
2022-12-29T13:38:57.248Z,50.22
2022-12-29T13:41:35.968Z,50.31
2022-12-29T13:44:11.679Z,50.28
2022-12-29T13:46:47.911Z,50.39
2022-12-29T13:49:22.949Z,50.41
2022-12-29T13:51:58.940Z,50.38
2022-12-29T13:54:33.365Z,50.36
2022-12-29T13:57:12.709Z,50.28
2022-12-29T13:59:52.633Z,50.47
2022-12-29T14:02:40.381Z,50.39
2022-12-29T14:05:33.665Z,50.35
2022-12-29T14:08:08.267Z,50.42
2022-12-29T14:10:48.859Z,50.43
2022-12-29T14:13:23.571Z,50.54
2022-12-29T14:15:59.612Z,50.49
2022-12-29T14:18:31.485Z,50.64
2022-12-29T14:21:11.280Z,50.60
2022-12-29T14:23:45.645Z,50.56
2022-12-29T14:26:21.070Z,50.72
2022-12-29T14:28:53.633Z,50.67
2022-12-29T14:31:42.340Z,50.64
2022-12-29T14:34:51.823Z,50.87
2022-12-29T14:37:30.179Z,50.85
2022-12-29T14:40:20.686Z,50.99
2022-12-29T14:42:55.113Z,51.07
2022-12-29T14:45:33.884Z,51.13
2022-12-29T14:48:32.397Z,51.33
2022-12-29T14:51:18.588Z,51.26
2022-12-29T14:53:53.344Z,51.42
2022-12-29T14:56:32.303Z,51.46
2022-12-29T14:59:06.273Z,51.58
2022-12-29T15:01:47.655Z,51.69
2022-12-29T15:04:23.601Z,51.64
2022-12-29T15:06:56.616Z,51.71
2022-12-29T15:09:37.472Z,51.82
2022-12-29T15:12:21.300Z,51.78
2022-12-29T15:14:56.279Z,51.95
2022-12-29T15:17:31.080Z,51.92
2022-12-29T15:20:19.189Z,51.95
2022-12-29T15:22:55.274Z,52.10
2022-12-29T15:25:28.483Z,52.29
2022-12-29T15:28:04.718Z,52.32
2022-12-29T15:30:36.933Z,52.49
2022-12-29T15:33:23.190Z,52.37
2022-12-29T15:35:57.214Z,52.46
2022-12-29T15:38:38.546Z,52.55
2022-12-29T15:41:27.249Z,52.69
2022-12-29T15:44:10.551Z,52.90
2022-12-29T15:46:42.829Z,52.93
2022-12-29T15:49:18.375Z,52.96
2022-12-29T15:51:53.874Z,53.02
2022-12-29T15:54:29.679Z,53.27
2022-12-29T15:57:01.987Z,53.26
2022-12-29T15:59:35.966Z,53.31
2022-12-29T16:02:14.036Z,53.66
2022-12-29T16:05:15.946Z,53.85
2022-12-29T16:07:42.188Z,53.72
2022-12-29T16:10:31.554Z,53.72
2022-12-29T16:13:15.022Z,53.80
2022-12-29T16:15:50.493Z,54.16
2022-12-29T16:18:29.858Z,54.36
2022-12-29T16:21:02.514Z,53.99
2022-12-29T16:23:38.877Z,54.14
2022-12-29T16:26:20.471Z,54.62
2022-12-29T16:28:57.265Z,54.54
2022-12-29T16:31:37.820Z,54.64
2022-12-29T16:34:25.504Z,54.43
2022-12-29T16:37:00.567Z,54.66
2022-12-29T16:39:35.924Z,54.87
2022-12-29T16:42:38.473Z,54.85
2022-12-29T16:45:39.381Z,54.90
2022-12-29T16:48:22.320Z,55.01
2022-12-29T16:51:03.024Z,55.03
2022-12-29T16:53:38.031Z,55.12
2022-12-29T16:56:18.190Z,55.10
2022-12-29T16:58:54.714Z,55.46
2022-12-29T17:01:27.167Z,55.31
2022-12-29T17:04:03.645Z,55.40
2022-12-29T17:06:35.948Z,55.54
2022-12-29T17:09:21.223Z,55.75
2022-12-29T17:12:01.570Z,55.81
2022-12-29T17:14:44.523Z,55.85
2022-12-29T17:17:24.168Z,56.11
2022-12-29T17:20:03.064Z,56.09
2022-12-29T17:22:36.962Z,55.93
2022-12-29T17:25:13.457Z,56.17
2022-12-29T17:27:49.473Z,56.36
2022-12-29T17:30:31.159Z,56.32
2022-12-29T17:33:09.031Z,56.61
2022-12-29T17:35:41.318Z,56.39
2022-12-29T17:38:21.285Z,56.32
2022-12-29T17:40:53.806Z,56.69
2022-12-29T17:43:30.091Z,56.53
2022-12-29T17:46:09.228Z,56.75
2022-12-29T17:48:41.690Z,56.74
2022-12-29T17:51:22.691Z,56.91
2022-12-29T17:53:54.890Z,56.81
2022-12-29T17:56:27.159Z,56.75
2022-12-29T17:58:59.841Z,56.87
2022-12-29T18:01:36.211Z,56.98
2022-12-29T18:04:11.816Z,57.01
2022-12-29T18:06:44.441Z,57.26
2022-12-29T18:09:18.481Z,57.26
2022-12-29T18:11:50.668Z,57.09
2022-12-29T18:14:22.996Z,57.41
2022-12-29T18:16:56.076Z,57.29
2022-12-29T18:19:33.961Z,57.49
2022-12-29T18:22:08.040Z,57.63
2022-12-29T18:24:40.272Z,57.66
2022-12-29T18:27:15.907Z,57.72
2022-12-29T18:29:48.657Z,57.77
2022-12-29T18:32:21.411Z,57.62
2022-12-29T18:34:53.761Z,57.73
2022-12-29T18:37:26.197Z,58.12
2022-12-29T18:39:59.534Z,58.30
2022-12-29T18:42:31.767Z,58.03
2022-12-29T18:45:03.941Z,57.98
2022-12-29T18:47:36.169Z,58.05
2022-12-29T18:50:09.231Z,58.35
2022-12-29T18:52:41.398Z,58.07
2022-12-29T18:55:19.880Z,58.52
2022-12-29T18:57:52.544Z,58.41
2022-12-29T19:00:25.467Z,58.42
2022-12-29T19:02:57.837Z,58.45
2022-12-29T19:05:32.728Z,58.50
2022-12-29T19:08:05.392Z,58.52
2022-12-29T19:10:38.033Z,58.42
2022-12-29T19:13:15.776Z,58.92
2022-12-29T19:15:49.969Z,58.85
2022-12-29T19:21:20.106Z,58.59
2022-12-29T19:23:53.266Z,58.94
2022-12-29T19:26:36.272Z,58.82
2022-12-29T19:29:11.818Z,58.77
2022-12-29T19:31:44.121Z,58.86
2022-12-29T19:34:19.623Z,58.73
2022-12-29T19:36:51.999Z,58.84
2022-12-29T19:39:24.292Z,59.03
2022-12-29T19:42:00.517Z,59.01
2022-12-29T19:44:37.671Z,59.01
2022-12-29T19:47:10.063Z,59.15
2022-12-29T19:49:43.473Z,59.11
2022-12-29T19:52:15.765Z,59.23
2022-12-29T19:54:48.040Z,59.27
2022-12-29T19:57:20.439Z,59.24
2022-12-29T19:59:53.054Z,59.02
2022-12-29T20:02:27.835Z,59.07
2022-12-29T20:05:00.322Z,59.21
2022-12-29T20:07:32.697Z,59.31
2022-12-29T20:10:05.405Z,59.46
2022-12-29T20:12:39.044Z,59.38
2022-12-29T20:15:13.018Z,59.53
2022-12-29T20:18:12.362Z,59.38
2022-12-29T20:20:37.793Z,59.37
2022-12-29T20:23:10.071Z,59.60
2022-12-29T20:25:45.702Z,59.61
2022-12-29T20:28:18.860Z,59.61
2022-12-29T20:30:59.099Z,59.57
2022-12-29T20:33:32.953Z,59.62
2022-12-29T20:36:10.415Z,59.52
2022-12-29T20:38:46.363Z,59.83
2022-12-29T20:41:17.886Z,59.76
2022-12-29T20:43:50.079Z,60.03
2022-12-29T20:46:28.043Z,59.74
2022-12-29T20:49:01.129Z,59.99
2022-12-29T20:52:03.977Z,60.12
2022-12-29T20:54:26.360Z,60.32
2022-12-29T20:56:58.923Z,60.06
2022-12-29T20:59:31.259Z,60.10
2022-12-29T21:02:03.492Z,60.10
2022-12-29T21:05:12.875Z,60.35
2022-12-29T21:07:28.328Z,60.16
2022-12-29T21:10:00.532Z,60.21
2022-12-29T21:12:32.819Z,60.43
2022-12-29T21:15:05.609Z,60.44
2022-12-29T21:17:37.955Z,60.40
2022-12-29T21:20:20.167Z,60.43
2022-12-29T21:22:52.770Z,60.47
2022-12-29T21:25:25.331Z,60.53
2022-12-29T21:27:57.513Z,60.60
2022-12-29T21:30:29.816Z,60.53
2022-12-29T21:33:02.895Z,60.53
2022-12-29T21:35:38.321Z,60.74
2022-12-29T21:38:12.131Z,60.74
2022-12-29T21:40:44.374Z,60.85
2022-12-29T21:43:16.581Z,60.74
2022-12-29T21:45:52.337Z,60.88
2022-12-29T21:48:28.957Z,61.00
2022-12-29T21:51:30.078Z,61.07
2022-12-29T21:54:18.429Z,61.05
2022-12-29T21:56:52.586Z,61.29
2022-12-29T21:59:42.245Z,61.14
2022-12-29T22:02:39.279Z,61.32
2022-12-29T22:05:33.251Z,61.23
2022-12-29T22:08:24.043Z,61.40
2022-12-29T22:11:13.728Z,61.59
2022-12-29T22:13:45.973Z,61.41
2022-12-29T22:16:18.451Z,61.33
2022-12-29T22:18:50.889Z,61.48
2022-12-29T22:21:23.233Z,61.43
2022-12-29T22:23:55.481Z,61.52
2022-12-29T22:26:27.707Z,61.47
2022-12-29T22:29:00.153Z,61.70
2022-12-29T22:31:34.103Z,61.65
2022-12-29T22:34:07.480Z,61.71
2022-12-29T22:36:39.713Z,61.68
2022-12-29T22:39:12.307Z,61.94
2022-12-29T22:41:44.830Z,61.86
2022-12-29T22:44:17.129Z,61.92
2022-12-29T22:46:49.416Z,62.00
2022-12-29T22:49:21.658Z,61.99
2022-12-29T22:51:54.152Z,61.88
2022-12-29T22:54:26.507Z,62.03
2022-12-29T22:56:58.851Z,61.94
2022-12-29T22:59:31.425Z,62.06
2022-12-29T23:02:03.853Z,61.97
2022-12-29T23:07:30.061Z,62.09
2022-12-29T23:10:02.331Z,61.97
2022-12-29T23:12:35.067Z,62.13
2022-12-29T23:15:09.126Z,62.11
2022-12-29T23:17:41.386Z,62.39
2022-12-29T23:20:15.127Z,62.43
2022-12-29T23:22:47.455Z,62.27
2022-12-29T23:25:19.947Z,62.35
2022-12-29T23:27:52.160Z,62.31
2022-12-29T23:30:24.544Z,62.13
2022-12-29T23:32:56.758Z,62.11
2022-12-29T23:35:29.080Z,62.30
2022-12-29T23:38:01.423Z,62.15
2022-12-29T23:40:34.492Z,62.24
2022-12-29T23:43:06.835Z,62.19
2022-12-29T23:45:39.955Z,62.24
2022-12-29T23:48:13.351Z,62.48
2022-12-29T23:50:45.801Z,62.20
2022-12-29T23:53:18.093Z,62.36
2022-12-29T23:55:55.801Z,62.18
2022-12-29T23:58:30.194Z,62.41
